createdAt,value
2018-12-21T00:02:02.809Z,96104.82
2018-12-21T00:04:31.080Z,96117.25
2018-12-21T00:06:59.311Z,96104.76
2018-12-21T00:09:27.527Z,96104.67
2018-12-21T00:11:55.735Z,96102.62
2018-12-21T00:14:23.911Z,96101.17
2018-12-21T00:16:52.049Z,96109.05
2018-12-21T00:19:20.222Z,96119.09
2018-12-21T00:21:48.397Z,96111.06
2018-12-21T00:24:16.689Z,96123.58
2018-12-21T00:26:44.854Z,96131.45
2018-12-21T00:29:13.010Z,96132.72
2018-12-21T00:31:46.647Z,96132.43
2018-12-21T00:34:20.315Z,96130.91
2018-12-21T00:36:53.921Z,96131.48
2018-12-21T00:39:27.740Z,96130.50
2018-12-21T00:41:55.196Z,96139.10
2018-12-21T00:44:31.066Z,96139.53
2018-12-21T00:47:01.472Z,96128.48
2018-12-21T00:49:29.764Z,96139.95
2018-12-21T00:51:57.916Z,96136.08
2018-12-21T00:54:26.104Z,96129.52
2018-12-21T00:56:54.285Z,96128.08
2018-12-21T00:59:22.536Z,96126.86
2018-12-21T01:01:50.879Z,96130.30
2018-12-21T01:04:19.184Z,96117.64
2018-12-21T01:06:47.497Z,96127.19
2018-12-21T01:09:15.656Z,96127.09
2018-12-21T01:11:43.846Z,96133.28
2018-12-21T01:14:12.214Z,96129.92
2018-12-21T01:16:40.491Z,96123.84
2018-12-21T01:19:08.739Z,96127.34
2018-12-21T01:21:38.923Z,96135.45
2018-12-21T01:24:07.156Z,96120.67
2018-12-21T01:26:35.388Z,96127.73
2018-12-21T01:29:03.604Z,96121.37
2018-12-21T01:31:31.788Z,96124.09
2018-12-21T01:33:59.998Z,96127.97
2018-12-21T01:36:28.321Z,96119.02
2018-12-21T01:38:56.600Z,96118.80
2018-12-21T01:41:24.858Z,96117.38
2018-12-21T01:43:53.039Z,96125.75
2018-12-21T01:46:21.221Z,96124.27
2018-12-21T01:48:49.489Z,96125.16
2018-12-21T01:51:17.612Z,96119.82
2018-12-21T01:53:45.826Z,96116.79
2018-12-21T01:56:13.992Z,96124.31
2018-12-21T01:58:42.309Z,96122.63
2018-12-21T02:01:10.395Z,96122.05
2018-12-21T02:03:38.540Z,96129.69
2018-12-21T02:06:06.829Z,96131.53
2018-12-21T02:08:35.050Z,96134.55
2018-12-21T02:11:03.306Z,96131.72
2018-12-21T02:13:31.557Z,96128.30
2018-12-21T02:15:59.744Z,96123.18
2018-12-21T02:18:27.896Z,96118.87
2018-12-21T02:20:56.040Z,96114.25
2018-12-21T02:23:24.271Z,96120.42
2018-12-21T02:25:52.400Z,96121.39
2018-12-21T02:28:20.527Z,96116.06
2018-12-21T02:30:48.689Z,96117.16
2018-12-21T02:33:16.841Z,96109.00
2018-12-21T02:35:45.040Z,96115.04
2018-12-21T02:38:13.351Z,96104.96
2018-12-21T02:40:41.611Z,96095.73
2018-12-21T02:43:09.900Z,96107.92
2018-12-21T02:45:37.995Z,96103.21
2018-12-21T02:48:06.212Z,96114.59
2018-12-21T02:50:34.426Z,96118.53
2018-12-21T02:53:02.767Z,96118.28
2018-12-21T02:55:30.962Z,96122.15
2018-12-21T02:57:59.316Z,96122.48
2018-12-21T03:00:27.567Z,96127.53
2018-12-21T03:02:55.683Z,96121.97
2018-12-21T03:05:23.856Z,96121.27
2018-12-21T03:07:52.001Z,96121.53
2018-12-21T03:10:20.185Z,96124.59
2018-12-21T03:12:48.408Z,96127.22
2018-12-21T03:15:16.589Z,96131.97
2018-12-21T03:17:44.900Z,96126.99
2018-12-21T03:20:13.099Z,96123.55
2018-12-21T03:22:41.337Z,96121.01
2018-12-21T03:25:09.519Z,96129.30
2018-12-21T03:27:37.712Z,96128.92
2018-12-21T03:30:06.859Z,96129.92
2018-12-21T03:32:35.415Z,96129.27
2018-12-21T03:35:03.998Z,96127.63
2018-12-21T03:37:32.111Z,96123.69
2018-12-21T03:40:00.296Z,96127.59
2018-12-21T03:42:28.572Z,96129.66
2018-12-21T03:44:56.735Z,96124.75
2018-12-21T03:47:25.017Z,96126.11
2018-12-21T03:49:53.215Z,96128.97
2018-12-21T03:52:24.510Z,96139.02
2018-12-21T03:54:51.716Z,96134.88
2018-12-21T03:57:20.590Z,96132.81
2018-12-21T03:59:48.872Z,96127.97
2018-12-21T04:02:17.138Z,96128.17
2018-12-21T04:04:45.410Z,96125.87
2018-12-21T04:07:13.647Z,96120.48
2018-12-21T04:09:42.301Z,96123.02
2018-12-21T04:12:11.383Z,96122.34
2018-12-21T04:14:39.911Z,96121.27
2018-12-21T04:17:08.127Z,96125.92
2018-12-21T04:19:36.771Z,96120.76
2018-12-21T04:22:05.359Z,96120.77
2018-12-21T04:24:33.760Z,96119.45
2018-12-21T04:27:02.146Z,96121.77
2018-12-21T04:29:30.783Z,96114.30
2018-12-21T04:31:59.731Z,96123.00
2018-12-21T04:34:27.965Z,96117.05
2018-12-21T04:36:56.627Z,96117.75
2018-12-21T04:39:25.753Z,96115.77
2018-12-21T04:41:54.685Z,96131.64
2018-12-21T04:44:23.455Z,96133.75
2018-12-21T04:46:52.069Z,96126.80
2018-12-21T04:49:20.710Z,96130.56
2018-12-21T04:51:48.928Z,96130.32
2018-12-21T04:54:17.276Z,96127.13
2018-12-21T04:56:45.666Z,96133.14
2018-12-21T04:59:13.901Z,96131.70
2018-12-21T05:01:42.192Z,96126.19
2018-12-21T05:04:19.515Z,96132.62
2018-12-21T05:06:40.622Z,96135.53
2018-12-21T05:09:08.808Z,96135.46
2018-12-21T05:11:37.134Z,96137.25
2018-12-21T05:14:12.095Z,96137.13
2018-12-21T05:16:40.716Z,96135.60
2018-12-21T05:19:09.653Z,96143.48
2018-12-21T05:21:38.196Z,96134.95
2018-12-21T05:24:06.840Z,96135.13
2018-12-21T05:26:35.092Z,96139.70
2018-12-21T05:29:03.308Z,96145.67
2018-12-21T05:31:31.543Z,96144.72
2018-12-21T05:34:00.012Z,96143.02
2018-12-21T05:36:28.405Z,96152.09
2018-12-21T05:38:56.705Z,96149.42
2018-12-21T05:41:25.302Z,96146.06
2018-12-21T05:46:36.858Z,96162.66
2018-12-21T05:49:05.496Z,96166.11
2018-12-21T05:51:44.074Z,96170.71
2018-12-21T05:54:12.775Z,96165.59
2018-12-21T05:56:41.379Z,96164.72
2018-12-21T05:59:09.805Z,96163.50
2018-12-21T06:01:38.319Z,96164.47
2018-12-21T06:04:06.916Z,96170.39
2018-12-21T06:06:35.116Z,96174.86
2018-12-21T06:09:04.622Z,96183.22
2018-12-21T06:11:32.781Z,96183.93
2018-12-21T06:14:01.176Z,96178.86
2018-12-21T06:16:29.668Z,96167.64
2018-12-21T06:18:57.760Z,96168.70
2018-12-21T06:21:26.032Z,96166.73
2018-12-21T06:23:54.273Z,96164.20
2018-12-21T06:26:22.566Z,96172.95
2018-12-21T06:28:50.836Z,96175.41
2018-12-21T06:31:18.997Z,96160.55
2018-12-21T06:33:52.720Z,96163.53
2018-12-21T06:36:27.549Z,96158.86
2018-12-21T06:38:55.877Z,96170.18
2018-12-21T06:41:24.064Z,96164.80
2018-12-21T06:43:52.299Z,96160.17
2018-12-21T06:46:20.575Z,96158.39
2018-12-21T06:48:48.867Z,96149.57
2018-12-21T06:51:17.204Z,96150.89
2018-12-21T06:53:45.342Z,96136.48
2018-12-21T06:56:13.564Z,96148.38
2018-12-21T06:58:41.750Z,96138.57
2018-12-21T07:01:09.911Z,96147.31
2018-12-21T07:03:38.030Z,96149.85
2018-12-21T07:06:09.434Z,96156.27
2018-12-21T07:08:37.616Z,96159.44
2018-12-21T07:11:06.122Z,96157.98
2018-12-21T07:13:34.325Z,96147.60
2018-12-21T07:16:02.456Z,96163.94
2018-12-21T07:18:30.616Z,96171.19
2018-12-21T07:21:03.526Z,96172.30
2018-12-21T07:23:33.725Z,96177.64
2018-12-21T07:26:01.948Z,96182.92
2018-12-21T07:28:30.168Z,96170.20
2018-12-21T07:30:59.056Z,96177.05
2018-12-21T07:33:29.724Z,96182.61
2018-12-21T07:36:08.119Z,96176.97
2018-12-21T07:38:30.724Z,96185.47
2018-12-21T07:40:59.115Z,96185.31
2018-12-21T07:43:29.699Z,96193.64
2018-12-21T07:45:57.844Z,96196.70
2018-12-21T07:48:29.311Z,96197.02
2018-12-21T07:51:01.428Z,96184.56
2018-12-21T08:09:32.435Z,96199.46
2018-12-21T08:12:01.181Z,96198.19
2018-12-21T08:14:30.502Z,96200.84
2018-12-21T08:17:01.141Z,96200.84
2018-12-21T08:19:32.169Z,96198.58
2018-12-21T08:22:01.655Z,96193.44
2018-12-21T08:24:31.072Z,96199.94
2018-12-21T08:27:00.810Z,96195.81
2018-12-21T08:29:30.394Z,96184.55
2018-12-21T08:31:58.576Z,96196.94
2018-12-21T08:34:26.710Z,96199.23
2018-12-21T08:36:58.993Z,96196.11
2018-12-21T08:39:28.264Z,96188.73
2018-12-21T08:41:56.573Z,96192.53
2018-12-21T08:44:25.259Z,96186.14
2018-12-21T08:46:53.715Z,96188.69
2018-12-21T08:49:24.308Z,96193.33
2018-12-21T08:51:52.952Z,96194.80
2018-12-21T08:54:21.404Z,96192.11
2018-12-21T08:56:51.033Z,96191.34
2018-12-21T08:59:19.364Z,96180.84
2018-12-21T09:01:48.432Z,96180.64
2018-12-21T09:04:16.652Z,96172.23
2018-12-21T09:06:44.926Z,96172.23
2018-12-21T09:09:13.132Z,96169.92
2018-12-21T09:11:44.213Z,96164.20
2018-12-21T09:14:12.422Z,96182.41
2018-12-21T09:16:40.686Z,96172.80
2018-12-21T09:19:09.104Z,96177.63
2018-12-21T09:21:37.917Z,96177.59
2018-12-21T09:24:09.177Z,96159.12
2018-12-21T09:26:37.278Z,96175.27
2018-12-21T09:29:07.651Z,96171.87
2018-12-21T09:31:37.647Z,96175.41
2018-12-21T09:34:06.626Z,96171.12
2018-12-21T09:36:35.077Z,96153.56
2018-12-21T09:39:04.791Z,96144.73
2018-12-21T09:41:34.557Z,96133.87
2018-12-21T09:44:03.066Z,96126.89
2018-12-21T09:46:36.055Z,96121.80
2018-12-21T09:49:08.773Z,96128.59
2018-12-21T09:51:39.682Z,96121.78
2018-12-21T09:54:10.110Z,96111.78
2018-12-21T09:56:38.080Z,96101.80
2018-12-21T09:59:08.045Z,96105.49
2018-12-21T10:01:36.313Z,96101.43
2018-12-21T10:04:07.876Z,96102.34
2018-12-21T10:06:36.123Z,96100.52
2018-12-21T10:09:06.469Z,96099.24
2018-12-21T10:11:34.745Z,96104.03
2018-12-21T10:14:03.859Z,96102.00
2018-12-21T10:16:32.506Z,96099.30
2018-12-21T10:19:00.637Z,96089.69
2018-12-21T10:21:31.536Z,96090.91
2018-12-21T10:24:00.393Z,96102.80
2018-12-21T10:26:30.003Z,96110.90
2018-12-21T10:28:58.378Z,96104.63
2018-12-21T10:31:27.071Z,96100.41
2018-12-21T10:33:55.659Z,96103.62
2018-12-21T10:36:24.229Z,96094.66
2018-12-21T10:38:53.025Z,96098.81
2018-12-21T10:41:21.449Z,96103.84
2018-12-21T10:43:49.873Z,96083.28
2018-12-21T10:46:18.286Z,96080.70
2018-12-21T10:48:46.558Z,96085.48
2018-12-21T10:51:14.707Z,96089.39
2018-12-21T10:53:46.576Z,96081.80
2018-12-21T10:56:13.318Z,96087.54
2018-12-21T10:58:41.526Z,96085.65
2018-12-21T11:01:09.727Z,96077.22
2018-12-21T11:03:37.906Z,96073.02
2018-12-21T11:06:06.036Z,96074.36
2018-12-21T11:08:34.392Z,96065.84
2018-12-21T11:11:02.552Z,96063.34
2018-12-21T11:13:30.739Z,96053.56
2018-12-21T11:15:58.917Z,96059.80
2018-12-21T11:18:27.120Z,96049.85
2018-12-21T11:20:55.589Z,96046.94
2018-12-21T11:23:23.763Z,96045.84
2018-12-21T11:25:52.566Z,96036.18
2018-12-21T11:28:25.362Z,96042.28
2018-12-21T11:30:50.822Z,96051.22
2018-12-21T11:33:18.970Z,96050.79
2018-12-21T11:35:47.155Z,96043.25
2018-12-21T11:38:15.394Z,96044.77
2018-12-21T11:40:43.567Z,96046.19
2018-12-21T11:43:11.727Z,96034.47
2018-12-21T11:45:40.101Z,96031.58
2018-12-21T11:48:08.211Z,96033.94
2018-12-21T11:50:36.353Z,96032.20
2018-12-21T11:53:04.570Z,96023.34
2018-12-21T11:55:32.850Z,96014.80
2018-12-21T11:58:01.029Z,96017.31
2018-12-21T12:00:29.289Z,96006.48
2018-12-21T12:02:57.555Z,96019.41
2018-12-21T12:05:25.688Z,96010.95
2018-12-21T12:07:54.082Z,96013.41
2018-12-21T12:10:22.231Z,96012.28
2018-12-21T12:12:50.463Z,96007.80
2018-12-21T12:15:18.891Z,96014.05
2018-12-21T12:17:46.994Z,96009.08
2018-12-21T12:20:15.352Z,96011.90
2018-12-21T12:22:43.463Z,96009.33
2018-12-21T12:25:11.753Z,96006.87
2018-12-21T12:27:39.875Z,96007.84
2018-12-21T12:30:10.371Z,96008.99
2018-12-21T12:32:38.634Z,95997.86
2018-12-21T12:35:07.821Z,96005.70
2018-12-21T12:37:35.937Z,96007.48
2018-12-21T12:40:05.078Z,96020.60
2018-12-21T12:42:33.407Z,95994.39
2018-12-21T12:45:01.605Z,95987.71
2018-12-21T12:47:30.974Z,95990.41
2018-12-21T12:49:59.119Z,95992.67
2018-12-21T12:52:28.458Z,95879.56
2018-12-21T12:55:02.547Z,95992.82
2018-12-21T12:57:26.802Z,95988.56
2018-12-21T12:59:55.118Z,95991.98
2018-12-21T13:02:23.232Z,96003.30
2018-12-21T13:04:51.375Z,96015.89
2018-12-21T13:07:19.853Z,96001.98
2018-12-21T13:09:48.059Z,96007.30
2018-12-21T13:12:16.213Z,96014.11
2018-12-21T13:14:44.989Z,96013.95
2018-12-21T13:17:13.692Z,96007.27
2018-12-21T13:19:42.113Z,96008.59
2018-12-21T13:22:10.433Z,95994.64
2018-12-21T13:24:38.567Z,96005.85
2018-12-21T13:27:06.655Z,96003.19
2018-12-21T13:29:35.692Z,96011.59
2018-12-21T13:32:03.909Z,96003.51
2018-12-21T13:34:32.134Z,95995.84
2018-12-21T13:37:00.423Z,95998.48
2018-12-21T13:39:28.800Z,95994.36
2018-12-21T13:41:58.623Z,96004.49
2018-12-21T13:44:26.817Z,96001.86
2018-12-21T13:46:55.098Z,95998.86
2018-12-21T13:49:23.623Z,96003.94
2018-12-21T13:51:51.830Z,95998.71
2018-12-21T13:54:20.153Z,95986.50
2018-12-21T13:56:48.333Z,95988.19
2018-12-21T13:59:16.721Z,95987.64
2018-12-21T14:01:45.491Z,95990.58
2018-12-21T14:04:13.882Z,95991.14
2018-12-21T14:06:42.265Z,95985.66
2018-12-21T14:09:10.715Z,95885.61
2018-12-21T14:11:39.159Z,95981.34
2018-12-21T14:14:07.477Z,95977.23
2018-12-21T14:16:35.924Z,95975.12
2018-12-21T14:19:04.481Z,95985.53
2018-12-21T14:21:32.865Z,95987.36
2018-12-21T14:24:01.325Z,95997.15
2018-12-21T14:26:29.490Z,95991.44
2018-12-21T14:28:57.582Z,95997.70
2018-12-21T14:31:25.651Z,96011.67
2018-12-21T14:33:54.692Z,96011.33
2018-12-21T14:36:23.707Z,96011.77
2018-12-21T14:38:52.082Z,96009.00
2018-12-21T14:41:21.210Z,96019.05
2018-12-21T14:43:49.499Z,96019.53
2018-12-21T14:46:17.667Z,96015.59
2018-12-21T14:48:45.893Z,96028.03
2018-12-21T14:51:14.095Z,96024.97
2018-12-21T14:53:43.726Z,96017.00
2018-12-21T14:56:12.533Z,96021.69
2018-12-21T14:58:40.751Z,95996.72
2018-12-21T15:01:09.025Z,96019.05
2018-12-21T15:03:37.514Z,96023.13
2018-12-21T15:06:06.183Z,96019.64
2018-12-21T15:08:34.374Z,96025.72
2018-12-21T15:11:02.529Z,96023.03
2018-12-21T15:13:30.746Z,96025.67
2018-12-21T15:15:58.937Z,96020.02
2018-12-21T15:18:27.250Z,96020.46
2018-12-21T15:20:55.579Z,96006.61
2018-12-21T15:23:23.748Z,96013.31
2018-12-21T15:25:51.954Z,96009.79
2018-12-21T15:28:20.118Z,96015.53
2018-12-21T15:30:48.263Z,96014.50
2018-12-21T15:33:16.392Z,96022.04
2018-12-21T15:35:44.676Z,96029.73
2018-12-21T15:38:12.818Z,96016.17
2018-12-21T15:40:41.009Z,96028.06
2018-12-21T15:43:09.135Z,96034.22
2018-12-21T15:45:37.332Z,96031.41
2018-12-21T15:48:05.526Z,96021.79
2018-12-21T15:50:33.702Z,96026.33
2018-12-21T15:53:01.820Z,96022.83
2018-12-21T15:55:29.962Z,96022.78
2018-12-21T15:57:58.104Z,96010.23
2018-12-21T16:00:29.244Z,96011.02
2018-12-21T16:02:58.599Z,96013.48
2018-12-21T16:05:27.459Z,96004.45
2018-12-21T16:07:55.621Z,96000.42
2018-12-21T16:10:23.760Z,95997.56
2018-12-21T16:12:52.058Z,96006.02
2018-12-21T16:15:20.359Z,96001.25
2018-12-21T16:17:48.609Z,96003.36
2018-12-21T16:20:16.946Z,96000.13
2018-12-21T16:22:46.848Z,96003.55
2018-12-21T16:25:16.050Z,96006.91
2018-12-21T16:27:44.970Z,96011.09
2018-12-21T16:30:14.155Z,96015.11
2018-12-21T16:32:42.253Z,96018.20
2018-12-21T16:35:10.425Z,96017.31
2018-12-21T16:37:38.578Z,96023.27
2018-12-21T16:40:09.381Z,96043.23
2018-12-21T16:42:37.763Z,96037.24
2018-12-21T16:45:08.945Z,96038.66
2018-12-21T16:47:37.285Z,96040.28
2018-12-21T16:50:10.075Z,96033.63
2018-12-21T16:52:39.249Z,96030.11
2018-12-21T16:55:08.802Z,96036.05
2018-12-21T16:57:36.992Z,96035.13
2018-12-21T17:00:08.971Z,96035.08
2018-12-21T17:02:37.261Z,96039.09
2018-12-21T17:05:05.671Z,96035.72
2018-12-21T17:07:34.066Z,96024.95
2018-12-21T17:10:02.361Z,96027.25
2018-12-21T17:12:30.552Z,96023.42
2018-12-21T17:14:58.881Z,96013.87
2018-12-21T17:17:28.189Z,96014.77
2018-12-21T17:19:56.497Z,96014.96
2018-12-21T17:22:25.250Z,96015.70
2018-12-21T17:24:53.508Z,96010.19
2018-12-21T17:27:21.787Z,96015.48
2018-12-21T17:29:49.999Z,96023.36
2018-12-21T17:32:18.672Z,96017.80
2018-12-21T17:34:47.172Z,96011.41
2018-12-21T17:37:15.444Z,96008.90
2018-12-21T17:39:43.690Z,95996.67
2018-12-21T17:42:13.758Z,95998.86
2018-12-21T17:44:42.563Z,95997.65
2018-12-21T17:47:10.798Z,95996.45
2018-12-21T17:49:40.254Z,96001.78
2018-12-21T17:52:08.462Z,95998.44
2018-12-21T17:54:37.796Z,95997.85
2018-12-21T17:57:06.647Z,96004.73
2018-12-21T17:59:35.814Z,95998.70
2018-12-21T18:02:05.377Z,96006.95
2018-12-21T18:04:33.696Z,96003.13
2018-12-21T18:07:01.916Z,96001.45
2018-12-21T18:09:35.784Z,96014.17
2018-12-21T18:12:04.312Z,95999.63
2018-12-21T18:14:32.573Z,95995.06
2018-12-21T18:17:01.929Z,96004.73
2018-12-21T18:19:30.097Z,95999.41
2018-12-21T18:22:12.672Z,95989.41
2018-12-21T18:24:41.050Z,95987.41
2018-12-21T18:27:09.345Z,95981.39
2018-12-21T18:29:39.850Z,95982.30
2018-12-21T18:32:40.944Z,95980.09
2018-12-21T18:35:15.135Z,95980.36
2018-12-21T18:37:56.452Z,95974.67
2018-12-21T18:40:24.832Z,95980.12
2018-12-21T18:42:53.240Z,95989.23
2018-12-21T18:45:21.619Z,95983.27
2018-12-21T18:47:49.821Z,95981.42
2018-12-21T18:50:17.955Z,95986.70
2018-12-21T18:52:46.148Z,95980.70
2018-12-21T18:55:17.662Z,95986.26
2018-12-21T18:57:46.050Z,95982.11
2018-12-21T19:00:16.671Z,95982.50
2018-12-21T19:02:45.309Z,95981.12
2018-12-21T19:05:13.585Z,95986.63
2018-12-21T19:07:42.169Z,95983.72
2018-12-21T19:10:12.785Z,95985.38
2018-12-21T19:12:42.994Z,95977.02
2018-12-21T19:15:14.642Z,95961.36
2018-12-21T19:17:45.279Z,95960.87
2018-12-21T19:20:15.291Z,95942.95
2018-12-21T19:22:43.552Z,95962.01
2018-12-21T19:25:15.033Z,95955.32
2018-12-21T19:27:43.439Z,95954.83
2018-12-21T19:30:12.020Z,95947.04
2018-12-21T19:32:41.680Z,95937.87
2018-12-21T19:35:11.612Z,95946.95
2018-12-21T19:37:39.812Z,95944.18
2018-12-21T19:40:09.658Z,95938.58
2018-12-21T19:42:39.640Z,95933.28
2018-12-21T19:45:11.659Z,95937.02
2018-12-21T19:47:41.292Z,95941.64
2018-12-21T19:50:11.768Z,95946.66
2018-12-21T19:52:42.733Z,95943.66
2018-12-21T19:55:21.086Z,95925.83
2018-12-21T19:57:49.979Z,95929.34
2018-12-21T20:00:18.599Z,95927.39
2018-12-21T20:02:48.289Z,95925.50
2018-12-21T20:05:19.184Z,95928.73
2018-12-21T20:07:47.814Z,95925.73
2018-12-21T20:10:16.149Z,95926.09
2018-12-21T20:12:45.196Z,95910.55
2018-12-21T20:15:13.340Z,95915.09
2018-12-21T20:17:43.258Z,95915.77
2018-12-21T20:20:12.630Z,95915.33
2018-12-21T20:22:41.645Z,95912.05
2018-12-21T20:25:11.395Z,95912.58
2018-12-21T20:27:42.198Z,95915.76
2018-12-21T20:30:14.526Z,95913.55
2018-12-21T20:32:42.912Z,95916.27
2018-12-21T20:35:11.777Z,95920.22
2018-12-21T20:37:41.846Z,95908.16
2018-12-21T20:40:12.519Z,95915.09
2018-12-21T20:42:41.307Z,95906.84
2018-12-21T20:45:10.592Z,95903.50
2018-12-21T20:47:39.069Z,95909.31
2018-12-21T20:50:12.434Z,95899.91
2018-12-21T20:52:41.414Z,95899.05
2018-12-21T20:55:10.020Z,95900.30
2018-12-21T20:57:39.973Z,95898.53
2018-12-21T21:00:12.632Z,95892.71
2018-12-21T21:02:41.204Z,95890.69
2018-12-21T21:05:15.842Z,95879.45
2018-12-21T21:07:44.008Z,95892.55
2018-12-21T21:10:13.290Z,95894.17
2018-12-21T21:12:42.471Z,95886.72
2018-12-21T21:15:13.414Z,95885.55
2018-12-21T21:17:42.519Z,95888.64
2018-12-21T21:20:14.081Z,95869.45
2018-12-21T21:22:42.681Z,95866.86
2018-12-21T21:25:11.534Z,95874.66
2018-12-21T21:27:41.250Z,95882.92
2018-12-21T21:30:12.883Z,95864.97
2018-12-21T21:32:41.027Z,95871.39
2018-12-21T21:35:09.979Z,95875.70
2018-12-21T21:37:40.562Z,95861.11
2018-12-21T21:40:16.507Z,95869.86
2018-12-21T21:42:45.593Z,95878.72
2018-12-21T21:45:15.147Z,95868.33
2018-12-21T21:47:43.562Z,95870.58
2018-12-21T21:50:12.948Z,95875.11
2018-12-21T21:52:41.613Z,95874.06
2018-12-21T21:55:09.760Z,95875.09
2018-12-21T21:57:39.553Z,95874.89
2018-12-21T22:00:11.618Z,95874.28
2018-12-21T22:02:39.925Z,95870.27
2018-12-21T22:05:08.131Z,95872.03
2018-12-21T22:07:36.463Z,95867.31
2018-12-21T22:10:06.619Z,95866.81
2018-12-21T22:12:34.800Z,95864.08
2018-12-21T22:15:03.223Z,95851.86
2018-12-21T22:17:31.927Z,95860.13
2018-12-21T22:20:00.103Z,95852.65
2018-12-21T22:22:28.467Z,95857.30
2018-12-21T22:24:56.620Z,95852.65
2018-12-21T22:27:24.858Z,95862.42
2018-12-21T22:29:53.725Z,95861.48
2018-12-21T22:32:22.161Z,95865.62
2018-12-21T22:34:50.300Z,95857.05
2018-12-21T22:37:18.951Z,95849.78
2018-12-21T22:39:49.909Z,95829.69
2018-12-21T22:42:18.514Z,95847.84
2018-12-21T22:44:47.819Z,95847.84
2018-12-21T22:47:17.432Z,95848.42
2018-12-21T22:49:47.506Z,95841.44
2018-12-21T22:52:16.059Z,95837.78
2018-12-21T22:54:44.237Z,95846.98
2018-12-21T22:57:12.334Z,95836.81
2018-12-21T22:59:40.487Z,95846.25
2018-12-21T23:02:08.708Z,95831.86
2018-12-21T23:04:36.909Z,95837.46
2018-12-21T23:07:05.090Z,95843.27
2018-12-21T23:09:33.334Z,95830.77
2018-12-21T23:12:01.571Z,95842.90
2018-12-21T23:14:29.735Z,95835.53
2018-12-21T23:16:57.921Z,95819.29
2018-12-21T23:19:26.136Z,95817.63
2018-12-21T23:21:54.276Z,95804.49
2018-12-21T23:24:22.470Z,95802.36
2018-12-21T23:26:50.736Z,95793.63
2018-12-21T23:29:18.902Z,95793.25
2018-12-21T23:31:47.041Z,95779.20
2018-12-21T23:34:15.164Z,95780.49
2018-12-21T23:36:43.296Z,95770.77
2018-12-21T23:39:11.387Z,95777.28
2018-12-21T23:41:39.652Z,95791.22
2018-12-21T23:44:07.752Z,95789.78
2018-12-21T23:46:35.932Z,95786.23
2018-12-21T23:49:04.145Z,95791.80
2018-12-21T23:51:32.384Z,95805.06
2018-12-21T23:54:00.623Z,95792.55
2018-12-21T23:56:28.764Z,95797.89
2018-12-21T23:58:56.923Z,95797.89
